createdAt,value
2022-09-21T00:00:59.880Z,-97.76
2022-09-21T00:01:56.927Z,-97.75
2022-09-21T00:02:56.834Z,-97.76
2022-09-21T00:03:56.845Z,-97.86
2022-09-21T00:04:56.813Z,-97.55
2022-09-21T00:05:56.793Z,-97.53
2022-09-21T00:06:56.799Z,-97.26
2022-09-21T00:07:56.766Z,-97.20
2022-09-21T00:08:56.745Z,-97.11
2022-09-21T00:09:56.776Z,-96.98
2022-09-21T00:10:56.746Z,-96.96
2022-09-21T00:11:58.378Z,-95.62
2022-09-21T00:12:56.689Z,-95.76
2022-09-21T00:13:56.711Z,-95.46
2022-09-21T00:14:56.679Z,-95.51
2022-09-21T00:15:56.679Z,-95.51
2022-09-21T00:16:56.705Z,-95.49
2022-09-21T00:17:56.617Z,-95.64
2022-09-21T00:18:56.655Z,-95.50
2022-09-21T00:19:59.588Z,-95.58
2022-09-21T00:20:59.589Z,-95.56
2022-09-21T00:21:56.569Z,-95.56
2022-09-21T00:22:56.549Z,-95.60
2022-09-21T00:23:56.541Z,-95.60
2022-09-21T00:24:56.576Z,-97.05
2022-09-21T00:25:56.510Z,-96.99
2022-09-21T00:26:56.508Z,-97.03
2022-09-21T00:27:56.481Z,-97.07
2022-09-21T00:28:56.527Z,-95.68
2022-09-21T00:29:56.453Z,-95.55
2022-09-21T00:30:56.463Z,-95.49
2022-09-21T00:31:56.514Z,-95.53
2022-09-21T00:32:56.409Z,-95.49
2022-09-21T00:33:56.401Z,-95.54
2022-09-21T00:34:56.385Z,-95.55
2022-09-21T00:35:56.393Z,-95.59
2022-09-21T00:36:56.374Z,-95.51
2022-09-21T00:37:56.343Z,-95.54
2022-09-21T00:38:56.334Z,-95.53
2022-09-21T00:39:59.355Z,-95.58
2022-09-21T00:40:59.364Z,-95.69
2022-09-21T00:41:56.284Z,-95.62
2022-09-21T00:42:56.275Z,-97.09
2022-09-21T00:43:56.295Z,-97.12
2022-09-21T00:44:56.235Z,-97.13
2022-09-21T00:45:56.249Z,-97.15
2022-09-21T00:46:56.284Z,-97.09
2022-09-21T00:47:56.202Z,-97.07
2022-09-21T00:48:56.185Z,-97.07
2022-09-21T00:49:56.175Z,-95.68
2022-09-21T00:50:56.155Z,-96.98
2022-09-21T00:51:56.145Z,-96.95
2022-09-21T00:52:56.154Z,-95.66
2022-09-21T00:53:56.116Z,-95.62
2022-09-21T00:54:56.095Z,-95.55
2022-09-21T00:55:56.086Z,-95.67
2022-09-21T00:56:56.078Z,-95.57
2022-09-21T00:57:56.084Z,-95.51
2022-09-21T00:58:56.192Z,-95.50
2022-09-21T00:59:59.031Z,-95.37
2022-09-21T01:00:59.044Z,-95.14
2022-09-21T01:01:56.058Z,-95.16
2022-09-21T01:02:56.051Z,-95.07
2022-09-21T01:03:55.969Z,-95.08
2022-09-21T01:04:55.959Z,-95.27
2022-09-21T01:05:55.950Z,-94.99
2022-09-21T01:06:55.929Z,-94.91
2022-09-21T01:07:55.919Z,-95.03
2022-09-21T01:08:55.928Z,-95.03
2022-09-21T01:09:55.892Z,-94.97
2022-09-21T01:10:55.870Z,-95.01
2022-09-21T01:11:55.860Z,-95.03
2022-09-21T01:12:55.915Z,-94.94
2022-09-21T01:13:55.834Z,-95.05
2022-09-21T01:14:55.820Z,-95.02
2022-09-21T01:15:55.801Z,-94.81
2022-09-21T01:16:55.791Z,-94.73
2022-09-21T01:17:55.792Z,-94.73
2022-09-21T01:18:55.812Z,-94.67
2022-09-21T01:19:58.764Z,-94.54
2022-09-21T01:20:58.752Z,-94.29
2022-09-21T01:21:55.721Z,-94.25
2022-09-21T01:22:55.710Z,-94.12
2022-09-21T01:23:55.697Z,-94.29
2022-09-21T01:24:55.702Z,-94.10
2022-09-21T01:25:55.665Z,-94.01
2022-09-21T01:26:55.666Z,-92.72
2022-09-21T01:27:55.677Z,-92.65
2022-09-21T01:28:55.645Z,-92.58
2022-09-21T01:29:55.615Z,-92.48
2022-09-21T01:30:55.613Z,-92.52
2022-09-21T01:31:55.586Z,-92.36
2022-09-21T01:32:55.564Z,-92.38
2022-09-21T01:33:55.586Z,-92.28
2022-09-21T01:34:55.554Z,-92.23
2022-09-21T01:35:55.526Z,-92.29
2022-09-21T01:36:55.508Z,-92.31
2022-09-21T01:37:55.497Z,-92.38
2022-09-21T01:38:55.696Z,-92.25
2022-09-21T01:39:58.542Z,-92.10
2022-09-21T01:40:58.466Z,-91.95
2022-09-21T01:41:55.448Z,-91.85
2022-09-21T01:42:55.436Z,-91.78
2022-09-21T01:43:55.418Z,-91.72
2022-09-21T01:44:55.452Z,-91.63
2022-09-21T01:45:55.418Z,-91.56
2022-09-21T01:46:55.377Z,-91.46
2022-09-21T01:47:55.367Z,-91.35
2022-09-21T01:48:55.350Z,-89.95
2022-09-21T01:49:55.338Z,-89.88
2022-09-21T01:50:55.348Z,-89.84
2022-09-21T01:51:55.326Z,-89.77
2022-09-21T01:52:55.293Z,-89.61
2022-09-21T01:53:55.280Z,-89.48
2022-09-21T01:54:55.289Z,-89.56
2022-09-21T01:55:55.265Z,-89.56
2022-09-21T01:56:55.242Z,-89.35
2022-09-21T01:57:55.231Z,-89.41
2022-09-21T01:58:55.305Z,-89.32
2022-09-21T01:59:58.220Z,-89.37
2022-09-21T02:00:58.262Z,-89.11
2022-09-21T02:01:55.219Z,-89.06
2022-09-21T02:02:55.182Z,-88.97
2022-09-21T02:03:55.145Z,-89.07
2022-09-21T02:04:55.131Z,-89.11
2022-09-21T02:05:55.126Z,-89.14
2022-09-21T02:06:55.102Z,-89.03
2022-09-21T02:07:55.082Z,-88.97
2022-09-21T02:08:55.104Z,-88.86
2022-09-21T02:09:55.061Z,-88.88
2022-09-21T02:10:55.062Z,-88.92
2022-09-21T02:11:55.033Z,-88.82
2022-09-21T02:12:55.024Z,-88.87
2022-09-21T02:13:55.063Z,-88.78
2022-09-21T02:14:55.009Z,-88.85
2022-09-21T02:15:55.013Z,-88.78
2022-09-21T02:16:54.974Z,-87.48
2022-09-21T02:17:54.994Z,-87.46
2022-09-21T02:18:54.976Z,-87.45
2022-09-21T02:19:57.925Z,-87.48
2022-09-21T02:20:57.949Z,-87.46
2022-09-21T02:21:54.907Z,-87.50
2022-09-21T02:22:54.919Z,-87.46
2022-09-21T02:23:54.878Z,-87.46
2022-09-21T02:24:54.890Z,-87.32
2022-09-21T02:25:54.878Z,-87.22
2022-09-21T02:26:54.838Z,-87.29
2022-09-21T02:27:54.827Z,-87.06
2022-09-21T02:28:54.848Z,-86.94
2022-09-21T02:29:54.829Z,-86.89
2022-09-21T02:30:54.798Z,-86.96
2022-09-21T02:31:54.777Z,-86.79
2022-09-21T02:32:54.769Z,-86.73
2022-09-21T02:33:54.779Z,-86.75
2022-09-21T02:34:54.738Z,-86.67
2022-09-21T02:35:54.721Z,-86.61
2022-09-21T02:36:54.718Z,-86.58
2022-09-21T02:37:54.697Z,-86.37
2022-09-21T02:38:54.710Z,-86.42
2022-09-21T02:39:57.679Z,-85.05
2022-09-21T02:40:57.700Z,-84.95
2022-09-21T02:41:54.647Z,-84.99
2022-09-21T02:42:54.639Z,-86.43
2022-09-21T02:43:54.740Z,-86.46
2022-09-21T02:44:54.643Z,-86.51
2022-09-21T02:45:54.590Z,-86.46
2022-09-21T02:46:54.620Z,-86.50
2022-09-21T02:47:54.560Z,-86.51
2022-09-21T02:48:54.558Z,-86.53
2022-09-21T02:49:54.712Z,-86.58
2022-09-21T02:50:54.531Z,-86.52
2022-09-21T02:51:54.530Z,-86.45
2022-09-21T02:52:54.501Z,-86.37
2022-09-21T02:53:54.544Z,-86.39
2022-09-21T02:54:54.474Z,-85.08
2022-09-21T02:55:56.616Z,-85.04
2022-09-21T02:56:54.480Z,-85.12
2022-09-21T02:57:54.445Z,-85.15
2022-09-21T02:58:54.427Z,-85.09
2022-09-21T02:59:57.410Z,-86.42
2022-09-21T03:00:57.426Z,-84.88
2022-09-21T03:01:54.440Z,-84.94
2022-09-21T03:02:54.385Z,-84.88
2022-09-21T03:03:54.364Z,-84.87
2022-09-21T03:04:54.350Z,-84.88
2022-09-21T03:05:54.329Z,-84.93
2022-09-21T03:06:54.348Z,-84.80
2022-09-21T03:07:54.326Z,-84.84
2022-09-21T03:08:54.298Z,-84.72
2022-09-21T03:09:54.275Z,-84.62
2022-09-21T03:10:54.268Z,-84.56
2022-09-21T03:11:54.258Z,-84.46
2022-09-21T03:12:54.266Z,-84.39
2022-09-21T03:13:54.226Z,-84.33
2022-09-21T03:14:54.206Z,-84.26
2022-09-21T03:15:54.226Z,-84.30
2022-09-21T03:16:54.237Z,-84.24
2022-09-21T03:17:54.167Z,-84.14
2022-09-21T03:18:54.169Z,-84.18
2022-09-21T03:19:57.138Z,-84.06
2022-09-21T03:20:57.148Z,-82.70
2022-09-21T03:21:54.119Z,-82.69
2022-09-21T03:22:54.139Z,-82.81
2022-09-21T03:23:54.088Z,-82.79
2022-09-21T03:24:54.079Z,-82.82
2022-09-21T03:25:54.068Z,-82.70
2022-09-21T03:26:54.088Z,-82.81
2022-09-21T03:27:54.043Z,-82.69
2022-09-21T03:28:54.097Z,-82.74
2022-09-21T03:29:54.039Z,-82.56
2022-09-21T03:30:54.036Z,-82.54
2022-09-21T03:31:53.997Z,-82.48
2022-09-21T03:32:53.982Z,-82.39
2022-09-21T03:33:53.962Z,-82.39
2022-09-21T03:34:54.014Z,-82.50
2022-09-21T03:35:53.931Z,-82.40
2022-09-21T03:36:53.921Z,-82.23
2022-09-21T03:37:53.911Z,-82.34
2022-09-21T03:38:53.916Z,-82.31
2022-09-21T03:39:56.917Z,-82.28
2022-09-21T03:40:56.882Z,-82.08
2022-09-21T03:41:53.864Z,-82.22
2022-09-21T03:42:53.842Z,-82.02
2022-09-21T03:43:53.852Z,-81.88
2022-09-21T03:44:53.872Z,-80.58
2022-09-21T03:45:53.806Z,-80.63
2022-09-21T03:46:53.794Z,-80.59
2022-09-21T03:47:53.793Z,-80.61
2022-09-21T03:48:53.763Z,-80.48
2022-09-21T03:49:53.753Z,-80.42
2022-09-21T03:50:53.781Z,-80.50
2022-09-21T03:51:53.744Z,-80.34
2022-09-21T03:52:53.715Z,-80.32
2022-09-21T03:53:53.695Z,-80.31
2022-09-21T03:54:53.684Z,-80.27
2022-09-21T03:55:53.673Z,-80.42
2022-09-21T03:56:53.698Z,-80.15
2022-09-21T03:57:53.642Z,-80.17
2022-09-21T03:58:53.626Z,-80.14
2022-09-21T03:59:56.615Z,-80.13
2022-09-21T04:00:56.625Z,-80.10
2022-09-21T04:01:53.680Z,-80.07
2022-09-21T04:02:53.601Z,-80.00
2022-09-21T04:03:53.558Z,-80.05
2022-09-21T04:04:53.547Z,-79.98
2022-09-21T04:05:53.537Z,-80.06
2022-09-21T04:06:53.527Z,-79.99
2022-09-21T04:07:53.528Z,-79.91
2022-09-21T04:08:53.497Z,-79.91
2022-09-21T04:09:53.478Z,-79.81
2022-09-21T04:10:53.480Z,-79.89
2022-09-21T04:11:53.499Z,-79.93
2022-09-21T04:12:53.449Z,-79.78
2022-09-21T04:13:53.428Z,-79.92
2022-09-21T04:14:53.421Z,-79.77
2022-09-21T04:15:53.433Z,-79.74
2022-09-21T04:16:53.389Z,-78.57
2022-09-21T04:17:53.403Z,-78.41
2022-09-21T04:18:53.403Z,-78.43
2022-09-21T04:19:56.349Z,-78.29
2022-09-21T04:20:56.350Z,-78.10
2022-09-21T04:21:53.323Z,-78.15
2022-09-21T04:22:53.310Z,-78.32
2022-09-21T04:23:53.295Z,-78.25
2022-09-21T04:24:53.311Z,-78.09
2022-09-21T04:25:53.268Z,-78.27
2022-09-21T04:26:53.259Z,-78.16
2022-09-21T04:27:53.242Z,-78.15
2022-09-21T04:28:53.252Z,-78.11
2022-09-21T04:29:53.211Z,-78.13
2022-09-21T04:30:53.268Z,-78.13
2022-09-21T04:31:53.193Z,-78.23
2022-09-21T04:32:53.178Z,-78.10
2022-09-21T04:33:53.160Z,-78.09
2022-09-21T04:34:53.153Z,-78.04
2022-09-21T04:35:53.132Z,-77.97
2022-09-21T04:36:53.164Z,-77.88
2022-09-21T04:37:53.103Z,-77.89
2022-09-21T04:38:53.094Z,-77.92
2022-09-21T04:39:56.075Z,-77.85
2022-09-21T04:40:56.075Z,-76.39
2022-09-21T04:41:53.074Z,-76.42
2022-09-21T04:42:53.043Z,-77.71
2022-09-21T04:43:53.033Z,-77.73
2022-09-21T04:44:53.016Z,-77.69
2022-09-21T04:45:53.071Z,-76.34
2022-09-21T04:46:53.034Z,-76.40
2022-09-21T04:47:53.002Z,-77.69
2022-09-21T04:48:52.957Z,-77.69
2022-09-21T04:49:52.944Z,-76.38
2022-09-21T04:50:52.936Z,-77.60
2022-09-21T04:51:52.916Z,-76.36
2022-09-21T04:52:52.938Z,-76.32
2022-09-21T04:53:52.887Z,-76.17
2022-09-21T04:54:52.877Z,-76.19
2022-09-21T04:55:52.857Z,-76.14
2022-09-21T04:56:52.858Z,-76.13
2022-09-21T04:57:52.857Z,-76.17
2022-09-21T04:58:52.826Z,-76.24
2022-09-21T04:59:55.799Z,-76.08
2022-09-21T05:00:55.809Z,-76.07
2022-09-21T05:01:52.888Z,-75.98
2022-09-21T05:02:52.809Z,-75.88
2022-09-21T05:03:52.786Z,-75.89
2022-09-21T05:04:52.739Z,-75.94
2022-09-21T05:05:52.728Z,-75.91
2022-09-21T05:06:52.718Z,-75.95
2022-09-21T05:07:52.700Z,-76.05
2022-09-21T05:08:52.720Z,-75.99
2022-09-21T05:09:52.697Z,-76.00
2022-09-21T05:10:52.661Z,-76.13
2022-09-21T05:11:52.640Z,-76.15
2022-09-21T05:12:52.630Z,-76.16
2022-09-21T05:13:52.621Z,-76.22
2022-09-21T05:14:52.790Z,-76.27
2022-09-21T05:15:52.651Z,-76.40
2022-09-21T05:16:52.581Z,-77.70
2022-09-21T05:17:52.564Z,-77.68
2022-09-21T05:18:52.552Z,-77.73
2022-09-21T05:19:55.561Z,-77.81
2022-09-21T05:20:55.543Z,-77.66
2022-09-21T05:21:52.513Z,-77.79
2022-09-21T05:22:52.499Z,-77.83
2022-09-21T05:24:01.369Z,-77.88
2022-09-21T05:24:52.499Z,-77.98
2022-09-21T05:25:52.482Z,-78.11
2022-09-21T05:26:52.458Z,-78.05
2022-09-21T05:27:52.458Z,-78.09
2022-09-21T05:28:52.476Z,-78.15
2022-09-21T05:29:52.420Z,-78.26
2022-09-21T05:31:14.134Z,-78.34
2022-09-21T05:31:53.456Z,-78.30
2022-09-21T05:32:52.409Z,-78.42
2022-09-21T05:33:52.380Z,-79.87
2022-09-21T05:34:52.408Z,-80.33
2022-09-21T05:35:52.350Z,-80.52
2022-09-21T05:36:52.363Z,-81.97
2022-09-21T05:37:52.353Z,-82.18
2022-09-21T05:38:52.311Z,-82.26
2022-09-21T05:39:55.300Z,-82.40
2022-09-21T05:40:55.311Z,-82.18
2022-09-21T05:41:52.263Z,-82.24
2022-09-21T05:42:52.432Z,-82.42
2022-09-21T05:43:52.265Z,-82.46
2022-09-21T05:44:52.213Z,-82.55
2022-09-21T05:45:52.258Z,-82.65
2022-09-21T05:46:56.073Z,-82.76
2022-09-21T05:47:52.193Z,-82.78
2022-09-21T05:48:52.373Z,-82.85
2022-09-21T05:49:52.150Z,-84.18
2022-09-21T05:50:52.166Z,-84.22
2022-09-21T05:51:52.124Z,-84.21
2022-09-21T05:52:52.117Z,-84.12
2022-09-21T05:53:52.155Z,-84.26
2022-09-21T05:54:52.097Z,-84.26
2022-09-21T05:55:52.078Z,-84.45
2022-09-21T05:56:52.050Z,-84.39
2022-09-21T05:57:52.055Z,-84.47
2022-09-21T05:58:52.043Z,-84.61
2022-09-21T05:59:55.035Z,-84.80
2022-09-21T06:00:55.104Z,-84.73
2022-09-21T06:01:51.998Z,-84.89
2022-09-21T06:02:51.984Z,-86.50
2022-09-21T06:03:51.979Z,-86.71
2022-09-21T06:04:51.999Z,-86.95
2022-09-21T06:05:51.934Z,-87.24
2022-09-21T06:06:51.934Z,-87.43
2022-09-21T06:07:51.917Z,-88.92
2022-09-21T06:08:51.908Z,-89.04
2022-09-21T06:09:51.907Z,-89.19
2022-09-21T06:10:51.887Z,-89.40
2022-09-21T06:11:51.856Z,-89.53
2022-09-21T06:12:51.858Z,-89.73
2022-09-21T06:13:51.854Z,-90.01
2022-09-21T06:14:51.848Z,-90.14
2022-09-21T06:15:51.840Z,-91.46
2022-09-21T06:16:52.566Z,-91.70
2022-09-21T06:17:51.808Z,-91.90
2022-09-21T06:18:51.758Z,-91.94
2022-09-21T06:19:54.767Z,-92.14
2022-09-21T06:20:54.789Z,-92.13
2022-09-21T06:21:51.740Z,-92.38
2022-09-21T06:22:51.720Z,-92.70
2022-09-21T06:23:51.758Z,-92.78
2022-09-21T06:24:51.698Z,-94.26
2022-09-21T06:25:55.935Z,-94.31
2022-09-21T06:26:52.662Z,-94.55
2022-09-21T06:27:51.641Z,-94.61
2022-09-21T06:28:51.633Z,-94.73
2022-09-21T06:29:51.668Z,-94.87
2022-09-21T06:30:51.643Z,-94.96
2022-09-21T06:31:51.612Z,-95.11
2022-09-21T06:32:51.593Z,-95.23
2022-09-21T06:33:51.596Z,-95.47
2022-09-21T06:34:51.581Z,-95.59
2022-09-21T06:35:51.553Z,-96.99
2022-09-21T06:36:51.532Z,-97.20
2022-09-21T06:37:51.524Z,-97.35
2022-09-21T06:38:51.514Z,-97.59
2022-09-21T06:39:54.516Z,-97.73
2022-09-21T06:40:54.573Z,-97.76
2022-09-21T06:41:51.455Z,-97.93
2022-09-21T06:42:51.496Z,-98.21
2022-09-21T06:43:51.456Z,-98.30
2022-09-21T06:44:51.464Z,-98.62
2022-09-21T06:45:51.461Z,-98.69
2022-09-21T06:46:51.429Z,-98.92
2022-09-21T06:47:51.376Z,-100.29
2022-09-21T06:48:51.357Z,-100.47
2022-09-21T06:49:51.348Z,-100.74
2022-09-21T06:50:51.353Z,-100.90
2022-09-21T06:51:51.398Z,-101.05
2022-09-21T06:52:51.309Z,-101.25
2022-09-21T06:53:51.305Z,-101.41
2022-09-21T06:54:51.296Z,-101.61
2022-09-21T06:55:51.286Z,-101.80
2022-09-21T06:56:51.254Z,-101.99
2022-09-21T06:57:51.390Z,-102.24
2022-09-21T06:58:51.236Z,-102.47
2022-09-21T06:59:54.277Z,-102.68
2022-09-21T07:00:54.311Z,-102.71
2022-09-21T07:01:51.247Z,-102.85
2022-09-21T07:02:51.168Z,-104.41
2022-09-21T07:03:51.210Z,-104.60
2022-09-21T07:04:51.153Z,-104.81
2022-09-21T07:05:51.149Z,-105.08
2022-09-21T07:06:51.152Z,-105.30
2022-09-21T07:07:53.801Z,-105.70
2022-09-21T07:10:09.216Z,-106.11
2022-09-21T07:10:52.057Z,-106.49
2022-09-21T07:11:51.081Z,-106.78
2022-09-21T07:12:51.031Z,-106.95
2022-09-21T07:13:51.031Z,-107.07
2022-09-21T07:14:51.011Z,-107.31
2022-09-21T07:15:53.328Z,-107.74
2022-09-21T07:16:50.992Z,-108.08
2022-09-21T07:17:52.244Z,-108.51
2022-09-21T07:18:50.942Z,-108.66
2022-09-21T07:19:53.941Z,-109.03
2022-09-21T07:20:54.012Z,-108.89
2022-09-21T07:21:50.922Z,-109.46
2022-09-21T07:22:50.918Z,-109.80
2022-09-21T07:23:50.894Z,-110.06
2022-09-21T07:24:50.883Z,-110.49
2022-09-21T07:25:50.894Z,-110.74
2022-09-21T07:26:50.874Z,-111.17
2022-09-21T07:27:50.834Z,-111.42
2022-09-21T07:28:50.844Z,-111.96
2022-09-21T07:29:50.890Z,-112.00
2022-09-21T07:30:50.820Z,-112.53
2022-09-21T07:31:50.870Z,-112.93
2022-09-21T07:32:50.817Z,-113.40
2022-09-21T07:33:50.806Z,-113.92
2022-09-21T07:34:50.739Z,-114.13
2022-09-21T07:35:50.768Z,-114.68
2022-09-21T07:36:50.745Z,-115.01
2022-09-21T07:37:50.707Z,-115.45
2022-09-21T07:38:50.676Z,-115.79
2022-09-21T07:39:53.727Z,-116.13
2022-09-21T07:40:53.687Z,-116.32
2022-09-21T07:41:50.654Z,-116.77
2022-09-21T07:42:50.658Z,-117.19
2022-09-21T07:43:50.619Z,-117.50
2022-09-21T07:44:51.237Z,-117.96
2022-09-21T07:45:51.476Z,-118.42
2022-09-21T07:46:50.598Z,-118.85
2022-09-21T07:47:50.579Z,-119.23
2022-09-21T07:48:50.568Z,-119.46
2022-09-21T07:49:50.534Z,-120.05
2022-09-21T07:50:50.519Z,-120.63
2022-09-21T07:51:50.551Z,-121.06
2022-09-21T07:52:50.502Z,-121.37
2022-09-21T07:53:50.481Z,-121.84
2022-09-21T07:54:50.487Z,-122.61
2022-09-21T07:55:50.531Z,-123.01
2022-09-21T07:56:50.451Z,-123.66
2022-09-21T07:57:50.440Z,-124.30
2022-09-21T07:58:50.429Z,-124.81
2022-09-21T07:59:53.403Z,-125.31
2022-09-21T08:00:53.438Z,-125.58
2022-09-21T08:01:50.471Z,-126.03
2022-09-21T08:02:50.429Z,-127.18
2022-09-21T08:03:50.358Z,-127.24
2022-09-21T08:04:50.351Z,-127.24
2022-09-21T08:05:50.316Z,-128.30
2022-09-21T08:06:50.327Z,-128.46
2022-09-21T08:07:50.331Z,-128.46
2022-09-21T08:08:55.092Z,-129.68
2022-09-21T08:09:51.319Z,-129.68
2022-09-21T08:10:50.393Z,-129.68
2022-09-21T08:11:50.237Z,-130.90
2022-09-21T08:12:50.254Z,-130.90
2022-09-21T08:13:50.235Z,-132.12
2022-09-21T08:14:50.285Z,-132.12
2022-09-21T08:15:50.539Z,-132.12
2022-09-21T08:16:50.197Z,-132.12
2022-09-21T08:17:50.177Z,-133.34
2022-09-21T08:18:50.236Z,-133.34
2022-09-21T08:19:53.188Z,-133.34
2022-09-21T08:20:53.128Z,-133.34
2022-09-21T08:21:54.811Z,-134.56
2022-09-21T08:22:51.110Z,-134.56
2022-09-21T08:23:50.078Z,-134.56
2022-09-21T08:24:50.078Z,-135.77
2022-09-21T08:25:50.070Z,-135.77
2022-09-21T08:26:50.039Z,-135.77
2022-09-21T08:27:50.050Z,-135.77
2022-09-21T08:28:50.067Z,-136.99
2022-09-21T08:29:49.998Z,-136.99
2022-09-21T08:30:50.010Z,-136.99
2022-09-21T08:31:50.042Z,-136.99
2022-09-21T08:32:51.836Z,-136.99
2022-09-21T08:33:50.101Z,-138.21
2022-09-21T08:34:49.936Z,-138.21
2022-09-21T08:35:49.964Z,-138.21
2022-09-21T08:36:55.079Z,-138.21
2022-09-21T08:37:50.923Z,-139.43
2022-09-21T08:38:49.872Z,-139.43
2022-09-21T08:39:52.875Z,-139.43
2022-09-21T08:40:52.905Z,-139.43
2022-09-21T08:41:49.853Z,-139.43
2022-09-21T08:42:50.878Z,-139.43
2022-09-21T08:43:49.824Z,-139.43
2022-09-21T08:44:49.844Z,-139.43
2022-09-21T08:45:49.796Z,-139.43
2022-09-21T08:46:49.976Z,-140.65
2022-09-21T08:47:49.776Z,-140.65
2022-09-21T08:48:49.747Z,-140.65
2022-09-21T08:49:49.746Z,-140.65
2022-09-21T08:50:49.726Z,-141.87
2022-09-21T08:51:49.706Z,-141.87
2022-09-21T08:52:49.735Z,-141.87
2022-09-21T08:53:49.707Z,-141.87
2022-09-21T08:54:49.659Z,-141.87
2022-09-21T08:55:49.648Z,-141.87
2022-09-21T08:57:04.362Z,-143.08
2022-09-21T08:57:50.628Z,-143.08
2022-09-21T08:58:49.609Z,-143.08
2022-09-21T08:59:52.619Z,-143.08
2022-09-21T09:00:52.605Z,-143.08
2022-09-21T09:01:49.641Z,-143.08
2022-09-21T09:02:49.599Z,-143.08
2022-09-21T09:03:49.582Z,-143.08
2022-09-21T09:04:49.530Z,-143.08
2022-09-21T09:05:49.510Z,-144.30
2022-09-21T09:06:49.552Z,-144.30
2022-09-21T09:07:49.491Z,-144.30
2022-09-21T09:08:49.471Z,-144.30
2022-09-21T09:09:49.481Z,-145.52
2022-09-21T09:10:49.454Z,-145.52
2022-09-21T09:11:49.413Z,-145.52
2022-09-21T09:12:49.453Z,-145.52
2022-09-21T09:13:49.413Z,-145.52
2022-09-21T09:14:49.384Z,-145.52
2022-09-21T09:15:49.404Z,-145.52
2022-09-21T09:16:49.358Z,-145.52
2022-09-21T09:17:49.375Z,-145.52
2022-09-21T09:18:49.342Z,-145.52
2022-09-21T09:19:52.316Z,-145.52
2022-09-21T09:20:52.317Z,-145.52
2022-09-21T09:21:49.309Z,-145.52
2022-09-21T09:22:49.313Z,-146.74
2022-09-21T09:23:49.296Z,-145.52
2022-09-21T09:24:49.264Z,-146.74
2022-09-21T09:25:49.238Z,-146.74
2022-09-21T09:26:49.246Z,-146.74
2022-09-21T09:27:49.229Z,-147.96
2022-09-21T09:28:53.068Z,-147.96
2022-09-21T09:29:49.471Z,-147.96
2022-09-21T09:30:49.158Z,-147.96
2022-09-21T09:31:49.235Z,-147.96
2022-09-21T09:32:49.166Z,-147.96
2022-09-21T09:33:49.310Z,-147.96
2022-09-21T09:34:49.143Z,-147.96
2022-09-21T09:35:49.118Z,-147.96
2022-09-21T09:37:04.097Z,-147.96
2022-09-21T09:37:50.071Z,-149.17
2022-09-21T09:38:49.050Z,-149.17
2022-09-21T09:39:52.102Z,-149.17
2022-09-21T09:40:52.124Z,-149.17
2022-09-21T09:41:49.060Z,-149.17
2022-09-21T09:42:49.033Z,-149.17
2022-09-21T09:43:49.054Z,-149.17
2022-09-21T09:44:48.991Z,-150.39
2022-09-21T09:45:49.066Z,-150.39
2022-09-21T09:46:48.973Z,-150.39
2022-09-21T09:47:48.998Z,-149.17
2022-09-21T09:48:53.939Z,-149.17
2022-09-21T09:49:49.912Z,-150.39
2022-09-21T09:50:48.932Z,-150.39
2022-09-21T09:51:48.895Z,-150.39
2022-09-21T09:52:48.875Z,-150.39
2022-09-21T09:53:48.926Z,-151.61
2022-09-21T09:54:48.879Z,-151.61
2022-09-21T09:55:48.938Z,-151.61
2022-09-21T09:56:48.847Z,-151.61
2022-09-21T09:57:48.825Z,-150.39
2022-09-21T09:58:48.786Z,-150.39
2022-09-21T09:59:54.452Z,-150.39
2022-09-21T10:00:51.836Z,-151.61
2022-09-21T10:01:48.813Z,-151.61
2022-09-21T10:02:48.727Z,-151.61
2022-09-21T10:03:48.779Z,-151.61
2022-09-21T10:04:48.810Z,-151.61
2022-09-21T10:05:48.900Z,-152.83
2022-09-21T10:06:48.680Z,-152.83
2022-09-21T10:07:48.681Z,-152.83
2022-09-21T10:08:48.640Z,-152.83
2022-09-21T10:09:48.639Z,-152.83
2022-09-21T10:10:48.623Z,-152.83
2022-09-21T10:11:48.672Z,-151.61
2022-09-21T10:12:48.594Z,-151.61
2022-09-21T10:13:48.602Z,-152.83
2022-09-21T10:14:48.564Z,-152.83
2022-09-21T10:15:48.766Z,-154.04
2022-09-21T10:16:48.535Z,-154.04
2022-09-21T10:17:48.524Z,-154.04
2022-09-21T10:18:48.525Z,-154.04
2022-09-21T10:19:51.505Z,-155.26
2022-09-21T10:20:51.540Z,-155.26
2022-09-21T10:21:51.968Z,-155.26
2022-09-21T10:22:48.490Z,-155.26
2022-09-21T10:23:48.485Z,-155.26
2022-09-21T10:24:48.450Z,-155.26
2022-09-21T10:25:48.464Z,-154.04
2022-09-21T10:26:48.419Z,-155.26
2022-09-21T10:27:48.393Z,-155.26
2022-09-21T10:28:48.480Z,-154.04
2022-09-21T10:29:48.368Z,-155.26
2022-09-21T10:30:48.370Z,-154.04
2022-09-21T10:31:48.408Z,-154.04
2022-09-21T10:32:48.311Z,-154.04
2022-09-21T10:33:48.309Z,-154.04
2022-09-21T10:34:48.300Z,-154.04
2022-09-21T10:35:48.279Z,-152.83
2022-09-21T10:36:48.309Z,-152.83
2022-09-21T10:37:48.258Z,-152.83
2022-09-21T10:38:48.234Z,-152.83
2022-09-21T10:39:51.225Z,-152.83
2022-09-21T10:40:51.281Z,-154.04
2022-09-21T10:41:48.213Z,-154.04
2022-09-21T10:42:48.177Z,-154.04
2022-09-21T10:43:48.192Z,-155.26
2022-09-21T10:44:48.152Z,-155.26
2022-09-21T10:45:48.149Z,-155.26
2022-09-21T10:46:48.653Z,-155.26
2022-09-21T10:47:48.156Z,-155.26
2022-09-21T10:48:48.093Z,-155.26
2022-09-21T10:49:48.086Z,-156.48
2022-09-21T10:50:48.067Z,-156.48
2022-09-21T10:51:48.058Z,-156.48
2022-09-21T10:52:48.038Z,-156.48
2022-09-21T10:53:49.953Z,-156.48
2022-09-21T10:54:48.028Z,-156.48
2022-09-21T10:55:58.517Z,-156.48
2022-09-21T10:56:48.998Z,-157.70
2022-09-21T10:57:48.008Z,-157.70
2022-09-21T10:58:47.979Z,-157.70
2022-09-21T10:59:50.948Z,-157.70
2022-09-21T11:00:50.950Z,-158.91
2022-09-21T11:01:47.979Z,-158.91
2022-09-21T11:02:47.962Z,-158.91
2022-09-21T11:03:47.902Z,-158.91
2022-09-21T11:04:47.889Z,-158.91
2022-09-21T11:05:47.892Z,-157.70
2022-09-21T11:06:47.856Z,-158.91
2022-09-21T11:07:47.883Z,-157.70
2022-09-21T11:08:47.874Z,-157.70
2022-09-21T11:09:47.853Z,-158.91
2022-09-21T11:10:47.843Z,-158.91
2022-09-21T11:11:47.807Z,-158.91
2022-09-21T11:12:47.796Z,-158.91
2022-09-21T11:13:47.785Z,-158.91
2022-09-21T11:14:47.814Z,-158.91
2022-09-21T11:15:47.762Z,-158.91
2022-09-21T11:16:47.736Z,-158.91
2022-09-21T11:17:47.716Z,-160.13
2022-09-21T11:18:47.705Z,-160.13
2022-09-21T11:19:50.728Z,-158.91
2022-09-21T11:20:50.687Z,-158.91
2022-09-21T11:21:47.658Z,-160.13
2022-09-21T11:22:47.658Z,-160.13
2022-09-21T11:23:47.643Z,-160.13
2022-09-21T11:24:54.771Z,-160.13
2022-09-21T11:25:47.591Z,-161.35
2022-09-21T11:26:47.585Z,-161.35
2022-09-21T11:27:47.581Z,-161.35
2022-09-21T11:28:47.552Z,-160.13
2022-09-21T11:29:47.533Z,-160.13
2022-09-21T11:30:48.866Z,-158.91
2022-09-21T11:31:47.503Z,-160.13
2022-09-21T11:32:47.503Z,-158.91
2022-09-21T11:33:47.486Z,-158.91
2022-09-21T11:34:47.474Z,-158.91
2022-09-21T11:35:47.462Z,-158.91
2022-09-21T11:36:47.485Z,-158.91
2022-09-21T11:37:47.427Z,-158.91
2022-09-21T11:38:47.420Z,-157.70
2022-09-21T11:39:50.396Z,-157.70
2022-09-21T11:40:50.407Z,-157.70
2022-09-21T11:41:47.396Z,-156.48
2022-09-21T11:42:47.370Z,-156.48
2022-09-21T11:43:47.339Z,-157.70
2022-09-21T11:44:47.333Z,-157.70
2022-09-21T11:45:50.537Z,-157.70
2022-09-21T11:46:47.330Z,-157.70
2022-09-21T11:47:47.321Z,-157.70
2022-09-21T11:48:47.299Z,-157.70
2022-09-21T11:49:47.260Z,-157.70
2022-09-21T11:50:47.266Z,-157.70
2022-09-21T11:51:47.279Z,-157.70
2022-09-21T11:52:47.963Z,-157.70
2022-09-21T11:53:47.251Z,-157.70
2022-09-21T11:54:47.214Z,-157.70
2022-09-21T11:55:47.163Z,-157.70
2022-09-21T11:56:47.163Z,-158.91
2022-09-21T11:57:49.557Z,-160.13
2022-09-21T11:58:47.166Z,-160.13
2022-09-21T11:59:50.113Z,-160.13
2022-09-21T12:00:50.118Z,-160.13
2022-09-21T12:01:47.086Z,-160.13
2022-09-21T12:02:47.329Z,-158.91
2022-09-21T12:03:47.064Z,-157.70
2022-09-21T12:04:47.098Z,-157.70
2022-09-21T12:05:47.026Z,-157.70
2022-09-21T12:06:47.027Z,-157.70
2022-09-21T12:07:46.997Z,-157.70
2022-09-21T12:08:46.988Z,-157.70
2022-09-21T12:09:46.968Z,-157.70
2022-09-21T12:10:46.992Z,-157.70
2022-09-21T12:11:46.940Z,-156.48
2022-09-21T12:12:46.989Z,-156.48
2022-09-21T12:13:46.925Z,-157.70
2022-09-21T12:14:46.903Z,-157.70
2022-09-21T12:15:46.890Z,-157.70
2022-09-21T12:16:46.910Z,-157.70
2022-09-21T12:17:46.857Z,-157.70
2022-09-21T12:18:46.884Z,-157.70
2022-09-21T12:19:49.826Z,-157.70